Time;durP1;ratioP1;P1;durP2;ratioP2;P2;SDS_P1;SDS_P2;PMS_P1;PMS_P2;Temp;Humidity;BMP_temperature;BMP_pressure;BME280_temperature;BME280_humidity;BME280_pressure;Samples;Min_cycle;Max_cycle;Signal;HPM_P1;HPM_P2
2022/08/13 00:00:00;;;;;;;11.80;10.40;;;;;;;20.38;81.46;100814.72;90987;1260;88408;-60
2022/08/13 00:02:10;;;;;;;12.80;10.50;;;;;;;20.36;81.52;100806.90;90941;1260;94973;-60
2022/08/13 00:04:21;;;;;;;11.10;9.90;;;;;;;20.28;81.70;100802.59;90957;1260;81883;-61
2022/08/13 00:08:53;;;;;;;10.80;9.80;;;;;;;20.31;81.75;100809.38;91002;1260;97505;-60
2022/08/13 00:11:02;;;;;;;11.90;10.50;;;;;;;20.32;81.85;100810.33;90991;1260;86337;-59
2022/08/13 00:13:12;;;;;;;15.00;10.80;;;;;;;20.34;81.56;100811.36;90902;1260;94411;-59
2022/08/13 00:15:27;;;;;;;11.20;9.70;;;;;;;20.35;81.57;100809.39;90956;1260;81323;-60
2022/08/13 00:17:37;;;;;;;10.40;9.30;;;;;;;20.35;81.43;100813.77;91012;1260;80976;-59
2022/08/13 00:19:51;;;;;;;10.80;8.50;;;;;;;20.33;81.55;100811.99;91007;1260;99830;-60
2022/08/13 00:22:01;;;;;;;10.10;9.10;;;;;;;20.31;81.64;100812.94;90968;1260;86723;-59
2022/08/13 00:24:10;;;;;;;10.20;8.70;;;;;;;20.34;81.62;100810.96;90936;1260;95223;-59
2022/08/13 00:30:21;;;;;;;11.60;9.40;;;;;;;20.35;81.62;100802.04;91067;1254;80236;-60
2022/08/13 00:32:30;;;;;;;9.60;8.60;;;;;;;20.33;81.56;100799.42;91185;1259;99242;-59
2022/08/13 00:34:39;;;;;;;11.80;9.00;;;;;;;20.27;81.52;100796.88;91186;1259;86159;-60
2022/08/13 00:36:49;;;;;;;10.30;9.10;;;;;;;20.25;81.50;100791.73;91149;1259;93911;-59
2022/08/13 00:38:58;;;;;;;12.60;9.30;;;;;;;20.24;81.45;100792.55;91159;1260;80479;-59
2022/08/13 00:41:37;;;;;;;12.10;9.90;;;;;;;20.20;81.56;100791.02;91176;1259;81587;-59
2022/08/13 00:43:38;;;;;;;12.60;10.50;;;;;;;20.17;81.83;100785.16;91200;1259;97621;-60
2022/08/13 00:45:47;;;;;;;10.70;9.30;;;;;;;20.15;82.00;100782.59;91202;1259;87960;-60
2022/08/13 00:50:23;;;;;;;10.40;9.40;;;;;;;20.15;81.86;100777.55;90902;1260;82464;-59
2022/08/13 00:52:33;;;;;;;12.00;9.80;;;;;;;20.13;82.12;100772.63;91139;1259;82016;-60
2022/08/13 00:54:43;;;;;;;10.70;9.30;;;;;;;20.15;82.09;100771.02;91179;1259;98598;-60
2022/08/13 00:56:56;;;;;;;10.60;9.50;;;;;;;20.14;82.09;100776.77;91189;1259;87237;-59
2022/08/13 00:59:10;;;;;;;13.20;10.30;;;;;;;20.10;81.98;100777.29;91121;1259;94812;-60
2022/08/13 01:01:26;;;;;;;12.40;10.30;;;;;;;20.07;81.98;100773.98;91174;1259;82642;-60
2022/08/13 01:03:38;;;;;;;10.80;9.60;;;;;;;20.08;81.94;100768.64;91183;1259;81256;-59
2022/08/13 01:05:50;;;;;;;11.90;9.10;;;;;;;20.06;82.07;100764.20;91170;1259;99125;-59
2022/08/13 01:08:00;;;;;;;11.20;9.90;;;;;;;20.03;82.34;100760.13;91185;1259;86299;-60
2022/08/13 01:10:11;;;;;;;11.50;9.50;;;;;;;20.05;82.40;100761.70;91151;1260;92750;-60
2022/08/13 01:12:23;;;;;;;11.50;9.40;;;;;;;20.09;82.20;100761.28;91150;1259;81220;-59
2022/08/13 01:14:35;;;;;;;11.10;8.70;;;;;;;20.11;82.09;100759.97;91175;1259;81661;-59
2022/08/13 01:16:45;;;;;;;14.60;9.60;;;;;;;20.15;82.08;100759.17;91189;1259;99052;-59
2022/08/13 01:18:55;;;;;;;13.90;9.20;;;;;;;20.14;82.03;100763.02;91138;1259;87304;-60
2022/08/13 01:21:10;;;;;;;10.60;9.20;;;;;;;20.15;81.89;100761.52;91129;1260;93980;-60
2022/08/13 01:23:20;;;;;;;13.40;9.70;;;;;;;20.16;81.96;100764.67;91100;1259;81859;-60
2022/08/13 01:25:30;;;;;;;14.40;10.40;;;;;;;20.14;82.03;100762.51;91197;1259;80401;-60
2022/08/13 01:27:39;;;;;;;14.40;9.60;;;;;;;20.13;81.98;100761.81;91152;1259;98851;-60
2022/08/13 01:29:49;;;;;;;12.90;9.90;;;;;;;20.12;81.94;100760.11;91175;1259;88970;-60
2022/08/13 01:31:59;;;;;;;10.50;9.30;;;;;;;20.08;81.93;100756.39;91169;1259;93458;-59
2022/08/13 01:34:09;;;;;;;11.40;8.70;;;;;;;20.06;82.06;100759.86;90917;1260;81906;-59
2022/08/13 01:36:19;;;;;;;13.20;9.10;;;;;;;20.03;82.22;100757.02;91183;1259;79317;-59
2022/08/13 01:38:29;;;;;;;11.10;9.00;;;;;;;20.02;82.17;100756.95;91176;1259;98194;-59
2022/08/13 01:40:38;;;;;;;10.60;7.80;;;;;;;20.02;82.12;100756.71;91180;1260;88993;-59
2022/08/13 01:42:48;;;;;;;9.80;7.70;;;;;;;20.06;82.07;100755.30;91173;1259;95587;-60
2022/08/13 01:44:59;;;;;;;9.90;8.10;;;;;;;20.07;82.08;100755.83;91174;1259;81409;-60
2022/08/13 01:52:13;;;;;;;8.30;7.30;;;;;;;19.97;82.19;100753.16;91163;1259;88110;-60
2022/08/13 01:54:23;;;;;;;10.20;8.00;;;;;;;19.92;82.15;100757.98;91151;1259;93196;-60
2022/08/13 01:56:34;;;;;;;12.00;9.00;;;;;;;19.89;82.15;100755.61;91135;1259;81817;-58
2022/08/13 01:58:44;;;;;;;10.60;8.50;;;;;;;19.85;82.28;100752.73;91160;1259;82759;-58
2022/08/13 02:00:59;;;;;;;10.10;7.80;;;;;;;19.85;82.36;100753.29;90938;1260;98335;-58
2022/08/13 02:03:11;;;;;;;10.30;8.70;;;;;;;19.87;82.38;100747.80;91153;1259;86665;-60
2022/08/13 02:05:22;;;;;;;10.10;7.80;;;;;;;19.88;82.37;100748.52;91185;1259;93796;-60
2022/08/13 02:07:32;;;;;;;7.60;6.80;;;;;;;19.87;82.40;100742.95;91156;1260;80942;-60
2022/08/13 02:09:46;;;;;;;7.50;6.70;;;;;;;19.89;82.47;100738.81;91179;1259;81366;-59
2022/08/13 02:11:56;;;;;;;8.70;7.50;;;;;;;19.91;82.55;100731.08;91191;1259;98429;-59
2022/08/13 02:14:06;;;;;;;7.50;6.80;;;;;;;19.93;82.52;100731.40;91157;1259;87334;-59
2022/08/13 02:16:15;;;;;;;8.80;7.10;;;;;;;19.90;82.56;100731.33;91157;1260;95151;-59
2022/08/13 02:18:26;;;;;;;7.00;6.40;;;;;;;19.89;82.51;100737.61;91134;1259;80595;-59
2022/08/13 02:20:36;;;;;;;8.80;7.10;;;;;;;19.87;82.58;100740.66;91184;1259;82023;-60
2022/08/13 02:22:46;;;;;;;6.80;6.20;;;;;;;19.87;82.49;100736.83;91178;1259;99588;-59
2022/08/13 02:25:01;;;;;;;7.80;6.70;;;;;;;19.87;82.48;100736.37;91210;1259;87556;-59
2022/08/13 02:27:11;;;;;;;11.00;7.80;;;;;;;19.82;82.74;100738.41;91161;1259;94616;-59
2022/08/13 02:29:23;;;;;;;11.60;8.10;;;;;;;19.81;82.91;100738.00;91167;1259;80712;-58
2022/08/13 02:31:32;;;;;;;10.30;8.60;;;;;;;19.78;82.83;100740.29;91207;1259;81352;-59
2022/08/13 02:33:42;;;;;;;10.60;8.80;;;;;;;19.75;82.84;100739.14;91180;1259;99408;-59
2022/08/13 02:35:51;;;;;;;12.40;9.00;;;;;;;19.76;82.84;100739.30;91197;1259;87560;-59
2022/08/13 02:38:00;;;;;;;11.50;9.10;;;;;;;19.75;82.96;100737.75;91164;1259;94305;-59
2022/08/13 02:42:35;;;;;;;13.20;10.30;;;;;;;19.70;82.95;100745.81;91171;1259;80559;-59
2022/08/13 02:44:43;;;;;;;10.90;9.20;;;;;;;19.69;82.92;100746.05;91153;1259;99438;-59
2022/08/13 02:46:52;;;;;;;13.00;9.40;;;;;;;19.68;83.07;100746.52;91173;1259;88910;-59
2022/08/13 02:49:02;;;;;;;13.40;9.90;;;;;;;19.68;83.15;100742.27;91120;1259;93555;-59
2022/08/13 02:51:12;;;;;;;10.60;8.50;;;;;;;19.71;83.31;100738.80;91138;1259;81265;-59
2022/08/13 02:53:21;;;;;;;12.10;8.50;;;;;;;19.77;83.08;100732.48;91177;1259;81315;-60
2022/08/13 02:55:30;;;;;;;9.70;8.40;;;;;;;19.78;82.97;100724.98;91164;1259;98410;-59
2022/08/13 02:57:39;;;;;;;10.70;7.70;;;;;;;19.75;82.94;100724.05;91199;1259;87394;-59
2022/08/13 02:59:48;;;;;;;9.10;7.10;;;;;;;19.71;83.11;100723.19;91172;1259;94214;-60
2022/08/13 03:01:58;;;;;;;10.40;7.90;;;;;;;19.63;83.12;100725.80;91171;1259;80992;-59
2022/08/13 03:04:07;;;;;;;9.80;7.60;;;;;;;19.61;82.90;100724.99;91194;1259;81343;-59
2022/08/13 03:06:19;;;;;;;11.90;8.00;;;;;;;19.56;82.78;100728.52;91230;1259;98346;-59
2022/08/13 03:08:29;;;;;;;9.30;8.30;;;;;;;19.45;82.64;100725.25;91209;1259;88532;-59
2022/08/13 03:10:38;;;;;;;9.80;8.80;;;;;;;19.36;82.74;100728.04;91149;1259;94978;-59
2022/08/13 03:12:58;;;;;;;8.80;7.50;;;;;;;19.29;82.79;100723.08;91159;1259;81629;-59
2022/08/13 03:15:09;;;;;;;10.50;7.90;;;;;;;19.27;82.79;100717.55;91176;1259;82787;-59
2022/08/13 03:17:18;;;;;;;9.10;7.00;;;;;;;19.22;82.93;100717.42;91191;1259;95683;-59
2022/08/13 03:19:26;;;;;;;9.20;8.00;;;;;;;19.18;83.05;100718.39;91163;1260;87888;-59
2022/08/13 03:21:38;;;;;;;9.00;7.90;;;;;;;19.15;83.23;100720.08;91147;1259;94651;-60
2022/08/13 03:23:47;;;;;;;9.20;7.00;;;;;;;19.16;83.03;100714.11;91156;1259;81265;-60
2022/08/13 03:25:56;;;;;;;8.60;7.10;;;;;;;19.14;83.00;100713.80;91173;1259;81485;-60
2022/08/13 03:28:06;;;;;;;9.10;7.20;;;;;;;19.13;82.91;100713.88;91187;1259;99746;-59
2022/08/13 03:30:19;;;;;;;8.50;6.90;;;;;;;19.09;82.86;100709.70;91182;1259;87946;-58
2022/08/13 03:32:28;;;;;;;8.60;6.90;;;;;;;19.08;82.87;100709.42;91142;1259;94604;-58
2022/08/13 03:34:38;;;;;;;7.40;6.60;;;;;;;19.04;82.92;100706.11;91115;1259;82524;-58
2022/08/13 03:36:48;;;;;;;7.40;6.70;;;;;;;19.02;82.97;100707.27;91161;1259;81325;-60
2022/08/13 03:38:57;;;;;;;8.00;6.80;;;;;;;18.98;82.96;100705.34;90994;1260;98622;-60
2022/08/13 03:41:11;;;;;;;7.70;6.50;;;;;;;18.94;83.05;100709.41;91175;1259;88785;-60
2022/08/13 03:43:20;;;;;;;6.80;6.20;;;;;;;18.91;83.21;100707.10;91131;1259;94019;-60
2022/08/13 03:45:30;;;;;;;7.50;6.10;;;;;;;18.90;83.25;100710.63;91139;1259;81337;-60
2022/08/13 03:47:39;;;;;;;6.90;6.30;;;;;;;18.92;83.32;100708.27;90782;1259;536599;-60
2022/08/13 03:49:48;;;;;;;6.60;6.00;;;;;;;18.94;83.22;100709.23;91181;1259;98251;-60
2022/08/13 03:51:57;;;;;;;8.30;7.40;;;;;;;18.96;83.21;100710.29;91205;1260;87410;-60
2022/08/13 03:54:06;;;;;;;8.40;6.90;;;;;;;18.95;83.34;100708.89;91159;1259;95524;-59
2022/08/13 03:56:18;;;;;;;7.30;6.20;;;;;;;18.99;83.33;100713.70;91178;1259;81349;-59
2022/08/13 03:58:28;;;;;;;8.70;6.60;;;;;;;19.03;83.48;100711.82;91176;1259;82190;-59
2022/08/13 04:00:40;;;;;;;8.20;6.40;;;;;;;19.03;83.55;100711.23;91156;1259;99058;-59
2022/08/13 04:02:50;;;;;;;7.90;7.10;;;;;;;19.07;83.61;100708.00;91181;1259;88757;-60
2022/08/13 04:04:58;;;;;;;7.50;6.70;;;;;;;19.16;83.76;100706.07;91162;1259;94642;-60
2022/08/13 04:07:09;;;;;;;7.60;6.80;;;;;;;19.24;83.85;100708.55;91175;1259;81244;-59
2022/08/13 04:09:18;;;;;;;7.00;6.30;;;;;;;19.34;83.95;100710.59;91173;1259;82933;-59
2022/08/13 04:11:28;;;;;;;10.30;6.50;;;;;;;19.41;84.01;100715.34;91171;1259;98421;-58
2022/08/13 04:13:39;;;;;;;7.30;6.60;;;;;;;19.47;84.07;100713.06;91169;1259;88182;-59
2022/08/13 04:15:48;;;;;;;7.70;6.30;;;;;;;19.56;84.09;100709.96;91151;1259;94471;-58
2022/08/13 04:17:56;;;;;;;10.90;7.00;;;;;;;19.63;84.07;100711.39;91118;1259;81212;-59
2022/08/13 04:20:07;;;;;;;10.40;6.30;;;;;;;19.64;83.80;100714.48;91179;1259;81568;-59
2022/08/13 04:22:17;;;;;;;14.40;6.70;;;;;;;19.67;83.72;100717.50;91151;1259;99000;-59
2022/08/13 04:24:27;;;;;;;32.80;9.60;;;;;;;19.70;83.59;100720.69;91152;1259;87581;-59
2022/08/13 04:26:36;;;;;;;27.30;8.70;;;;;;;19.68;83.42;100723.41;91100;1259;94711;-60
2022/08/13 04:28:46;;;;;;;25.90;8.00;;;;;;;19.73;83.14;100722.42;91125;1259;81441;-59
2022/08/13 04:30:55;;;;;;;32.30;9.00;;;;;;;19.77;82.88;100718.65;91157;1260;81964;-59
2022/08/13 04:33:04;;;;;;;36.90;9.80;;;;;;;19.83;82.72;100724.29;91135;1259;99207;-60
2022/08/13 04:35:13;;;;;;;42.30;9.40;;;;;;;19.83;82.72;100727.46;91159;1260;88090;-60
2022/08/13 04:37:24;;;;;;;37.20;9.90;;;;;;;19.86;82.48;100729.93;91136;1259;95042;-60
2022/08/13 04:39:32;;;;;;;26.60;8.90;;;;;;;19.91;82.44;100733.11;91129;1260;79509;-60
2022/08/13 04:41:41;;;;;;;17.40;7.20;;;;;;;19.95;82.22;100729.24;91176;1259;82037;-60
2022/08/13 04:43:50;;;;;;;20.60;7.00;;;;;;;19.97;82.18;100731.43;91165;1259;99121;-60
2022/08/13 04:46:00;;;;;;;22.80;7.40;;;;;;;19.99;82.10;100729.40;91135;1259;87879;-60
2022/08/13 04:48:12;;;;;;;25.70;8.00;;;;;;;20.01;81.98;100733.54;91196;1259;94074;-60
2022/08/13 04:50:21;;;;;;;27.80;8.50;;;;;;;20.05;81.90;100732.75;91141;1259;82432;-60
2022/08/13 04:52:30;;;;;;;27.70;7.60;;;;;;;20.03;81.71;100735.73;91205;1259;81768;-59
2022/08/13 04:54:39;;;;;;;30.10;8.20;;;;;;;20.04;81.69;100735.85;91206;1259;98989;-60
2022/08/13 04:56:48;;;;;;;28.90;7.40;;;;;;;20.10;81.61;100731.54;91206;1259;88062;-60
2022/08/13 04:58:57;;;;;;;29.70;8.60;;;;;;;20.18;81.39;100724.73;91162;1259;94704;-59
2022/08/13 05:01:09;;;;;;;37.20;9.40;;;;;;;20.19;81.42;100718.33;91149;1259;81850;-59
2022/08/13 05:03:21;;;;;;;41.10;9.80;;;;;;;20.27;81.28;100716.76;91198;1259;80797;-60
2022/08/13 05:05:31;;;;;;;26.50;8.60;;;;;;;20.41;81.13;100714.72;91199;1259;99977;-60
2022/08/13 05:07:41;;;;;;;15.30;6.70;;;;;;;20.52;80.94;100714.04;91184;1260;88383;-60
2022/08/13 05:09:49;;;;;;;15.70;7.00;;;;;;;20.55;80.92;100714.55;91150;1260;95622;-59
2022/08/13 05:11:57;;;;;;;18.60;8.00;;;;;;;20.65;80.75;100709.88;91167;1259;80260;-59
2022/08/13 05:14:06;;;;;;;21.60;7.30;;;;;;;20.73;80.62;100711.55;91145;1259;82673;-59
2022/08/13 05:16:18;;;;;;;20.00;7.90;;;;;;;20.87;80.36;100708.83;91183;1259;98989;-60
2022/08/13 05:18:29;;;;;;;26.50;7.30;;;;;;;21.05;80.03;100711.36;91192;1260;88792;-60
2022/08/13 05:20:39;;;;;;;28.50;8.50;;;;;;;21.21;79.71;100711.34;91157;1260;95320;-60
2022/08/13 05:22:48;;;;;;;21.00;6.90;;;;;;;21.39;79.43;100709.04;91144;1259;80804;-60
2022/08/13 05:24:57;;;;;;;22.30;6.30;;;;;;;21.45;79.58;100712.25;90956;1260;82544;-60
2022/08/13 05:27:06;;;;;;;21.50;6.80;;;;;;;21.51;79.33;100712.73;91157;1260;99076;-60
2022/08/13 05:29:15;;;;;;;20.00;6.90;;;;;;;21.64;79.23;100714.85;91187;1259;87452;-60
2022/08/13 05:31:24;;;;;;;36.50;9.30;;;;;;;21.75;78.89;100710.30;91128;1260;94365;-60
2022/08/13 05:33:35;;;;;;;33.60;9.10;;;;;;;21.82;78.22;100710.29;90907;1260;79506;-60
2022/08/13 05:35:45;;;;;;;21.60;8.40;;;;;;;21.80;77.88;100710.77;91176;1259;82313;-60
2022/08/13 05:37:54;;;;;;;27.50;8.00;;;;;;;21.76;77.84;100709.99;91209;1260;96199;-60
2022/08/13 05:40:04;;;;;;;28.40;8.50;;;;;;;21.74;77.56;100711.01;91217;1260;87813;-60
2022/08/13 05:42:13;;;;;;;33.00;8.60;;;;;;;21.73;77.31;100709.25;91164;1260;95403;-60
2022/08/13 05:44:22;;;;;;;23.80;7.50;;;;;;;21.74;77.18;100707.67;91150;1260;79878;-60
2022/08/13 05:46:31;;;;;;;25.90;7.80;;;;;;;21.79;77.51;100703.59;91224;1260;81590;-60
2022/08/13 05:48:55;;;;;;;31.80;8.70;;;;;;;21.90;77.76;100699.63;91172;1259;99558;-60
2022/08/13 05:51:07;;;;;;;33.60;7.70;;;;;;;22.18;77.73;100698.48;91186;1260;87109;-59
2022/08/13 05:53:17;;;;;;;21.10;7.10;;;;;;;22.51;77.25;100692.67;91170;1260;92922;-60
2022/08/13 05:55:25;;;;;;;20.80;6.80;;;;;;;22.66;76.91;100696.27;91169;1260;80324;-60
2022/08/13 05:57:34;;;;;;;24.90;6.90;;;;;;;22.76;76.12;100693.98;91191;1260;81353;-60
2022/08/13 06:04:40;;;;;;;18.10;7.10;;;;;;;23.12;75.09;100697.36;91164;1259;95250;-59
2022/08/13 06:06:50;;;;;;;14.40;6.40;;;;;;;22.99;75.17;100698.58;91136;1260;80354;-60
2022/08/13 06:08:59;;;;;;;15.90;6.90;;;;;;;23.07;74.80;100692.41;91193;1260;81652;-61
2022/08/13 06:11:14;;;;;;;16.60;6.70;;;;;;;23.25;74.81;100692.71;91195;1260;98814;-61
2022/08/13 06:13:23;;;;;;;18.40;7.90;;;;;;;23.21;73.96;100698.80;91208;1259;86283;-60
2022/08/13 06:15:33;;;;;;;29.10;7.80;;;;;;;22.98;73.91;100700.61;91153;1259;95082;-60
2022/08/13 06:17:42;;;;;;;16.80;7.40;;;;;;;22.80;73.72;100702.88;91129;1260;80149;-61
2022/08/13 06:19:52;;;;;;;17.30;6.50;;;;;;;22.65;73.43;100703.41;91200;1260;80970;-61
2022/08/13 06:22:04;;;;;;;12.90;7.00;;;;;;;22.44;73.88;100703.45;91173;1260;99575;-61
2022/08/13 06:24:13;;;;;;;16.70;6.80;;;;;;;22.22;74.11;100707.35;91203;1260;88058;-60
2022/08/13 06:26:24;;;;;;;14.00;5.90;;;;;;;21.96;74.21;100703.23;91162;1259;94315;-60
2022/08/13 06:28:35;;;;;;;12.40;6.50;;;;;;;21.75;74.29;100719.77;91139;1260;81724;-60
2022/08/13 06:30:45;;;;;;;10.70;7.30;;;;;;;21.62;74.38;100763.30;91213;1259;81884;-60
2022/08/13 06:33:01;;;;;;;6.30;5.50;;;;;;;21.36;74.82;100784.46;91212;1260;98789;-60
2022/08/13 06:35:10;;;;;;;8.50;5.10;;;;;;;21.19;75.03;100806.89;91185;1260;89044;-59
2022/08/13 06:37:22;;;;;;;9.40;5.10;;;;;;;21.04;75.31;100819.73;91186;1260;94502;-60
2022/08/13 06:39:32;;;;;;;7.50;5.30;;;;;;;20.87;75.80;100827.55;91173;1260;80610;-59
2022/08/13 06:41:42;;;;;;;6.90;5.00;;;;;;;20.75;76.11;100837.15;91198;1260;80211;-59
2022/08/13 06:43:52;;;;;;;9.90;4.90;;;;;;;20.64;76.48;100836.60;91202;1259;97642;-60
2022/08/13 06:46:05;;;;;;;8.50;5.90;;;;;;;20.45;77.18;100838.09;91185;1260;88138;-57
2022/08/13 06:48:14;;;;;;;9.30;5.70;;;;;;;20.34;77.81;100838.45;91149;1260;95484;-57
2022/08/13 06:50:22;;;;;;;9.10;5.40;;;;;;;20.28;77.87;100838.00;91141;1260;81606;-58
2022/08/13 06:52:31;;;;;;;6.80;5.00;;;;;;;20.18;78.28;100828.20;91192;1259;80266;-58
2022/08/13 06:54:40;;;;;;;9.10;5.30;;;;;;;20.11;79.04;100820.15;91212;1259;98455;-58
2022/08/13 06:56:49;;;;;;;6.70;5.80;;;;;;;20.12;78.98;100808.98;91195;1260;88542;-59
2022/08/13 06:58:59;;;;;;;8.50;6.00;;;;;;;20.08;79.41;100826.29;91122;1260;94848;-59
2022/08/13 07:01:08;;;;;;;6.30;5.50;;;;;;;20.02;79.48;100826.60;91137;1260;81727;-60
2022/08/13 07:03:17;;;;;;;9.10;5.70;;;;;;;19.99;79.70;100834.77;91186;1260;80415;-60
2022/08/13 07:05:41;;;;;;;6.00;5.30;;;;;;;19.96;79.91;100818.13;91187;1260;99711;-59
2022/08/13 07:07:50;;;;;;;7.00;6.00;;;;;;;19.94;80.80;100818.19;91218;1260;88237;-60
2022/08/13 07:09:59;;;;;;;6.90;5.60;;;;;;;19.91;80.84;100821.36;91166;1259;92548;-59
2022/08/13 07:12:08;;;;;;;8.30;5.80;;;;;;;19.87;81.06;100822.92;91130;1259;82171;-58
2022/08/13 07:14:17;;;;;;;7.00;6.30;;;;;;;19.92;81.13;100826.80;91199;1260;82127;-58
2022/08/13 07:16:30;;;;;;;6.10;5.40;;;;;;;19.93;81.06;100825.56;91215;1260;98333;-58
2022/08/13 07:18:40;;;;;;;7.40;5.40;;;;;;;19.96;81.34;100833.48;91178;1259;88747;-58
2022/08/13 07:20:48;;;;;;;6.70;5.60;;;;;;;20.01;81.51;100843.09;91158;1260;94430;-58
2022/08/13 07:22:58;;;;;;;7.60;6.10;;;;;;;20.05;81.46;100849.88;91166;1260;80416;-57
2022/08/13 07:25:10;;;;;;;7.60;5.80;;;;;;;20.02;82.07;100856.39;91190;1259;81616;-57
2022/08/13 07:27:19;;;;;;;6.70;5.80;;;;;;;20.01;81.97;100849.50;91182;1260;99580;-59
2022/08/13 07:29:28;;;;;;;7.00;5.70;;;;;;;20.06;81.89;100831.63;91164;1260;87741;-59
2022/08/13 07:31:40;;;;;;;8.00;5.80;;;;;;;20.11;81.95;100822.88;91121;1260;94650;-58
2022/08/13 07:33:53;;;;;;;6.20;5.60;;;;;;;20.13;82.11;100807.15;91130;1260;80836;-58
2022/08/13 07:36:06;;;;;;;8.10;6.60;;;;;;;20.12;82.33;100794.13;91168;1260;82140;-58
2022/08/13 07:38:15;;;;;;;6.90;5.30;;;;;;;20.14;82.33;100773.86;91200;1259;96823;-58
2022/08/13 07:40:24;;;;;;;7.60;6.00;;;;;;;20.23;82.50;100762.20;91163;1259;88162;-58
2022/08/13 07:42:37;;;;;;;7.30;5.50;;;;;;;20.33;82.42;100754.52;91140;1260;94831;-59
2022/08/13 07:44:52;;;;;;;7.20;5.30;;;;;;;20.43;82.48;100747.77;91134;1260;82048;-60
2022/08/13 07:47:01;;;;;;;6.80;5.20;;;;;;;20.62;82.44;100739.48;91182;1260;83046;-61
2022/08/13 07:49:12;;;;;;;7.00;5.60;;;;;;;20.77;82.42;100736.80;91171;1259;99168;-61
2022/08/13 07:51:22;;;;;;;5.30;4.80;;;;;;;20.92;82.35;100728.38;91152;1259;89063;-60
2022/08/13 07:53:34;;;;;;;7.20;5.70;;;;;;;21.03;82.30;100716.42;91121;1259;95357;-60
2022/08/13 07:55:44;;;;;;;7.10;4.80;;;;;;;21.19;82.28;100709.02;91129;1259;82317;-59
2022/08/13 07:57:53;;;;;;;6.00;5.30;;;;;;;21.37;82.14;100708.23;91189;1260;82042;-60
2022/08/13 08:00:02;;;;;;;6.00;5.40;;;;;;;21.46;81.97;100713.11;91179;1259;96973;-60
2022/08/13 08:02:13;;;;;;;6.60;6.00;;;;;;;21.48;82.24;100713.17;91200;1260;88095;-59
2022/08/13 08:04:25;;;;;;;5.80;5.30;;;;;;;21.53;82.19;100710.24;91168;1260;94356;-59
2022/08/13 08:06:34;;;;;;;5.80;5.20;;;;;;;21.67;82.27;100718.02;91161;1260;79249;-59
2022/08/13 08:08:44;;;;;;;5.80;4.30;;;;;;;21.87;82.07;100716.42;91179;1259;81145;-57
2022/08/13 08:10:54;;;;;;;6.00;5.00;;;;;;;22.04;81.92;100719.58;91178;1259;99583;-58
2022/08/13 08:13:03;;;;;;;6.40;4.80;;;;;;;22.19;81.84;100716.23;91180;1260;88840;-59
2022/08/13 08:15:13;;;;;;;8.50;5.80;;;;;;;22.28;82.16;100711.48;91129;1259;94429;-59
2022/08/13 08:17:26;;;;;;;9.00;5.80;;;;;;;22.33;82.27;100696.63;91131;1260;81322;-60
2022/08/13 08:19:35;;;;;;;8.00;5.80;;;;;;;22.28;82.32;100688.77;91153;1259;81995;-59
2022/08/13 08:21:45;;;;;;;6.80;5.60;;;;;;;22.30;82.25;100689.98;91167;1259;97000;-59
2022/08/13 08:23:56;;;;;;;6.70;6.00;;;;;;;22.29;82.10;100688.53;91175;1260;86292;-59
2022/08/13 08:26:07;;;;;;;6.60;5.90;;;;;;;22.27;82.21;100683.73;91135;1259;95449;-59
2022/08/13 08:28:19;;;;;;;7.80;5.60;;;;;;;22.23;81.98;100676.59;91125;1260;79254;-59
2022/08/13 08:30:28;;;;;;;22.70;8.20;;;;;;;22.40;81.73;100675.44;91184;1259;80815;-59
2022/08/13 08:32:38;;;;;;;7.50;6.10;;;;;;;22.43;81.65;100680.81;91176;1259;100174;-59
2022/08/13 08:34:50;;;;;;;8.20;6.50;;;;;;;22.44;81.30;100683.73;91155;1259;88913;-59
2022/08/13 08:36:59;;;;;;;7.90;7.10;;;;;;;22.45;81.37;100684.86;91158;1259;94468;-59
2022/08/13 08:44:06;;;;;;;12.60;7.60;;;;;;;22.55;81.08;100683.18;91190;1259;97855;-62
2022/08/13 08:46:17;;;;;;;15.60;8.60;;;;;;;22.64;80.88;100683.79;91181;1260;88721;-63
2022/08/13 08:48:29;;;;;;;9.60;7.80;;;;;;;22.75;80.64;100671.55;91160;1260;94899;-62
2022/08/13 08:50:39;;;;;;;17.60;8.70;;;;;;;22.95;80.78;100666.71;91129;1260;80731;-62
2022/08/13 08:55:16;;;;;;;11.30;7.90;;;;;;;23.41;80.23;100658.32;91195;1260;98128;-61
2022/08/13 08:57:25;;;;;;;8.20;7.40;;;;;;;23.50;80.16;100646.52;91173;1259;87667;-63
2022/08/13 08:59:39;;;;;;;7.60;6.60;;;;;;;23.66;80.08;100638.48;91151;1259;94540;-63
2022/08/13 09:01:49;;;;;;;8.10;7.00;;;;;;;23.73;80.30;100631.12;91162;1260;79310;-62
2022/08/13 09:04:00;;;;;;;7.40;6.70;;;;;;;24.00;80.69;100625.08;91191;1260;83052;-62
2022/08/13 09:06:12;;;;;;;6.90;6.20;;;;;;;24.31;80.02;100617.66;91192;1259;98562;-61
2022/08/13 09:08:25;;;;;;;7.80;6.70;;;;;;;24.38;79.24;100619.92;91167;1259;86426;-61
2022/08/13 09:10:39;;;;;;;7.40;6.50;;;;;;;24.35;78.69;100616.61;91140;1260;94618;-62
2022/08/13 09:12:50;;;;;;;8.70;6.60;;;;;;;24.49;78.41;100607.02;91153;1260;78784;-64
2022/08/13 09:14:59;;;;;;;7.00;6.30;;;;;;;24.56;78.15;100602.10;90938;1260;82461;-63
2022/08/13 09:17:09;;;;;;;7.20;6.50;;;;;;;24.74;77.74;100603.08;91033;1260;98483;-63
2022/08/13 09:19:19;;;;;;;7.00;6.10;;;;;;;24.74;77.20;100604.13;91175;1259;87604;-63
2022/08/13 09:21:29;;;;;;;7.80;6.80;;;;;;;24.71;77.03;100604.08;90908;1260;94644;-63
2022/08/13 09:23:46;;;;;;;7.50;6.40;;;;;;;24.85;76.95;100601.49;91125;1259;79214;-62
2022/08/13 09:25:55;;;;;;;6.50;6.00;;;;;;;24.94;76.42;100599.94;91162;1259;82852;-63
2022/08/13 09:28:08;;;;;;;7.70;6.40;;;;;;;25.00;76.54;100602.65;91169;1260;98499;-61
2022/08/13 09:30:17;;;;;;;6.50;5.80;;;;;;;24.81;76.37;100606.85;91183;1259;88529;-63
2022/08/13 09:32:28;;;;;;;7.10;5.70;;;;;;;24.73;76.00;100613.52;91148;1259;94868;-64
2022/08/13 09:34:39;;;;;;;7.10;5.80;;;;;;;24.81;76.05;100611.83;91110;1259;82407;-62
2022/08/13 09:36:50;;;;;;;5.80;4.60;;;;;;;24.80;75.55;100613.15;91165;1259;82944;-62
2022/08/13 09:39:00;;;;;;;7.50;4.90;;;;;;;24.71;75.44;100621.09;91185;1259;99498;-62
2022/08/13 09:41:21;;;;;;;6.30;5.70;;;;;;;24.71;75.37;100621.33;90945;1260;87473;-62
2022/08/13 09:43:40;;;;;;;5.50;5.00;;;;;;;24.88;75.29;100623.60;91149;1260;94309;-62
2022/08/13 09:45:49;;;;;;;6.50;5.00;;;;;;;25.17;75.34;100626.71;91145;1260;79002;-62
2022/08/13 09:47:59;;;;;;;5.60;5.10;;;;;;;25.56;75.07;100623.96;91192;1259;82886;-63
2022/08/13 09:50:10;;;;;;;5.50;5.00;;;;;;;25.69;74.75;100620.55;91180;1259;98207;-63
2022/08/13 09:52:20;;;;;;;5.60;5.10;;;;;;;25.89;74.43;100620.34;91211;1260;88240;-63
2022/08/13 09:54:29;;;;;;;5.80;5.10;;;;;;;25.98;74.53;100621.83;91185;1259;92727;-63
2022/08/13 09:56:38;;;;;;;5.30;4.80;;;;;;;26.22;74.15;100621.20;91149;1260;79843;-62
2022/08/13 09:58:50;;;;;;;6.50;5.00;;;;;;;26.63;73.69;100623.19;91189;1259;81531;-62
2022/08/13 10:00:59;;;;;;;5.30;4.80;;;;;;;26.82;73.34;100619.71;91180;1259;98270;-63
2022/08/13 10:03:10;;;;;;;5.40;4.90;;;;;;;26.92;72.79;100620.95;91222;1259;87532;-65
2022/08/13 10:05:20;;;;;;;6.20;5.30;;;;;;;27.13;72.03;100619.91;90937;1261;92516;-65
2022/08/13 10:07:30;;;;;;;5.90;4.90;;;;;;;27.11;71.63;100625.15;91154;1259;78712;-63
2022/08/13 10:09:40;;;;;;;5.60;5.00;;;;;;;27.00;71.01;100630.91;91212;1259;80682;-63
2022/08/13 10:11:52;;;;;;;5.20;4.70;;;;;;;26.85;70.48;100633.83;91161;1259;97756;-62
2022/08/13 10:14:01;;;;;;;5.20;4.60;;;;;;;26.65;70.07;100636.46;91131;1259;87546;-61
2022/08/13 10:16:13;;;;;;;5.50;4.70;;;;;;;26.51;70.24;100637.63;91152;1259;95466;-61
2022/08/13 10:18:28;;;;;;;5.40;4.80;;;;;;;26.40;69.65;100643.25;91159;1259;79686;-63
2022/08/13 10:20:43;;;;;;;7.80;5.00;;;;;;;26.31;69.83;100650.09;91167;1259;81686;-63
2022/08/13 10:22:53;;;;;;;6.00;5.40;;;;;;;26.32;69.75;100658.31;91216;1259;97447;-62
2022/08/13 10:25:02;;;;;;;8.30;6.00;;;;;;;26.38;69.65;100662.55;91186;1259;87562;-63
2022/08/13 10:27:15;;;;;;;6.50;5.40;;;;;;;26.40;69.89;100660.77;91176;1259;92755;-66
2022/08/13 10:29:25;;;;;;;5.40;4.90;;;;;;;26.39;69.61;100658.33;91169;1260;77380;-67
2022/08/13 10:31:36;;;;;;;5.10;4.60;;;;;;;26.47;69.75;100656.39;91187;1259;82720;-63